.
WxDataArchive / Data Records for 2008-05-21
2008-05-20 May 2008 2008-05-22

Data Records for Wednesday, 21 May 2008

Time	Temp	Chill	HIndex	Humid	Dewpt	 Wind 	HiWind	WindDir	Rain 	Barom 
-----	----	-----	------	-----	-----	------	------	-------	-----	----- 
00:00	51.3	51.3	51.3	65	39.9	0	2	248	0.00	29.542 
00:05	51.1	51.1	51.1	66	40.1	0	1	248	0.00	29.541 
00:10	51.0	51.0	51.0	66	40.0	0	1	248	0.00	29.539 
00:15	50.8	50.8	50.8	67	40.2	0	1	248	0.00	29.540 
00:20	50.7	50.7	50.7	67	40.1	0	2	248	0.00	29.538 
00:25	50.7	50.7	50.7	68	40.5	0	1	248	0.00	29.538 
00:30	50.7	50.7	50.7	68	40.5	0	2	248	0.00	29.538 
00:35	50.5	50.5	50.5	68	40.3	0	1	248	0.00	29.537 
00:40	50.5	50.5	50.5	68	40.3	0	2	248	0.00	29.535 
00:45	50.4	50.4	50.4	68	40.2	0	1	248	0.00	29.535 
00:50	50.4	50.4	50.4	69	40.6	0	1	248	0.00	29.532 
00:55	50.4	50.4	50.4	69	40.6	0	1	248	0.00	29.533 
01:00	50.2	50.2	50.2	69	40.4	0	1	248	0.00	29.530 
01:05	50.1	50.1	50.1	69	40.3	0	1	248	0.00	29.528 
01:10	49.9	49.9	49.9	70	40.5	0	1	248	0.00	29.526 
01:15	49.8	49.8	49.8	70	40.4	0	0	---	0.00	29.524 
01:20	49.5	49.5	49.5	71	40.5	0	0	---	0.00	29.523 
01:25	49.2	49.2	49.2	71	40.2	0	1	248	0.00	29.524 
01:30	49.2	49.2	49.2	72	40.6	0	0	---	0.00	29.520 
01:35	49.1	49.1	49.1	72	40.5	0	1	248	0.00	29.518 
01:40	48.9	48.9	48.9	72	40.3	0	1	248	0.00	29.515 
01:45	48.8	48.8	48.8	73	40.5	0	1	248	0.00	29.512 
01:50	48.6	48.6	48.6	73	40.3	0	1	248	0.00	29.513 
01:55	48.6	48.6	48.6	73	40.3	0	1	248	0.00	29.513 
02:00	48.8	48.8	48.8	73	40.5	0	1	248	0.00	29.512 
02:05	48.8	48.8	48.8	73	40.5	0	1	248	0.00	29.511 
02:10	48.8	48.8	48.8	73	40.5	0	2	248	0.00	29.510 
02:15	48.9	48.9	48.9	73	40.6	0	2	270	0.00	29.510 
02:20	48.9	48.9	48.9	73	40.6	0	1	270	0.00	29.509 
02:25	48.9	48.9	48.9	73	40.6	0	1	270	0.00	29.509 
02:30	48.9	48.9	48.9	73	40.6	0	1	270	0.00	29.510 
02:35	48.9	48.9	48.9	74	41.0	1	3	248	0.00	29.510 
02:40	48.9	48.9	48.9	73	40.6	0	2	248	0.00	29.510 
02:45	48.9	48.9	48.9	74	41.0	0	2	248	0.00	29.509 
02:50	48.9	48.9	48.9	74	41.0	0	3	292	0.00	29.510 
02:55	48.8	48.8	48.8	74	40.9	0	2	270	0.00	29.509 
03:00	48.6	48.6	48.6	74	40.7	0	1	270	0.00	29.510 
03:05	48.6	48.6	48.6	74	40.7	0	1	270	0.00	29.510 
03:10	48.5	48.5	48.5	74	40.6	0	2	270	0.00	29.510 
03:15	48.3	48.3	48.3	74	40.4	0	1	270	0.00	29.514 
03:20	48.3	48.3	48.3	74	40.4	0	1	270	0.00	29.513 
03:25	48.2	48.2	48.2	74	40.3	0	0	---	0.00	29.512 
03:30	47.9	47.9	47.9	75	40.4	0	1	270	0.00	29.514 
03:35	47.7	47.7	47.7	75	40.2	0	1	270	0.00	29.515 
03:40	47.6	47.6	47.6	76	40.4	0	1	270	0.00	29.515 
03:45	47.4	47.4	47.4	76	40.2	0	1	270	0.00	29.516 
03:50	47.4	47.4	47.4	76	40.2	0	0	---	0.00	29.519 
03:55	47.4	47.4	47.4	76	40.2	0	1	270	0.00	29.517 
04:00	47.6	47.6	47.6	76	40.4	0	1	270	0.00	29.517 
04:05	47.7	47.7	47.7	76	40.5	0	1	270	0.00	29.517 
04:10	47.7	47.7	47.7	76	40.5	0	1	270	0.00	29.520 
04:15	47.9	47.9	47.9	76	40.7	0	1	270	0.00	29.520 
04:20	47.9	47.9	47.9	76	40.7	0	1	270	0.00	29.522 
04:25	47.9	47.9	47.9	76	40.7	0	1	270	0.00	29.520 
04:30	47.9	47.9	47.9	76	40.7	0	1	270	0.00	29.523 
04:35	48.0	48.0	48.0	76	40.8	0	2	270	0.00	29.526 
04:40	48.0	48.0	48.0	76	40.8	0	1	270	0.00	29.527 
04:45	48.0	48.0	48.0	75	40.5	0	3	270	0.00	29.530 
04:50	48.0	48.0	48.0	75	40.5	0	3	270	0.00	29.534 
04:55	47.7	47.7	47.7	72	39.1	1	5	315	0.00	29.537 
05:00	47.4	47.4	47.4	69	37.7	1	5	338	0.00	29.539 
05:05	47.1	47.1	47.1	68	37.1	1	3	0	0.00	29.541 
05:10	46.8	46.8	46.8	68	36.8	1	6	338	0.00	29.544 
05:15	46.5	46.5	46.5	67	36.1	0	3	292	0.00	29.545 
05:20	46.2	46.2	46.2	67	35.9	0	1	22	0.00	29.547 
05:25	46.1	46.1	46.1	67	35.8	0	1	22	0.00	29.548 
05:30	46.0	46.0	46.0	67	35.7	0	1	22	0.00	29.553 
05:35	45.8	45.8	45.8	66	35.1	0	1	22	0.00	29.559 
05:40	45.7	45.7	45.7	66	35.0	0	1	22	0.00	29.560 
05:45	45.5	45.5	45.5	67	35.2	0	1	22	0.00	29.561 
05:50	45.4	45.4	45.4	66	34.7	0	1	22	0.00	29.562 
05:55	45.4	45.4	45.4	66	34.7	0	1	22	0.00	29.564 
06:00	45.2	45.2	45.2	66	34.5	0	1	22	0.00	29.564 
06:05	45.2	45.2	45.2	67	34.9	0	0	---	0.00	29.564 
06:10	45.2	45.2	45.2	66	34.5	0	1	22	0.00	29.569 
06:15	45.2	45.2	45.2	67	34.9	0	1	22	0.00	29.571 
06:20	45.4	45.4	45.4	66	34.7	0	1	22	0.00	29.571 
06:25	45.4	45.4	45.4	67	35.1	0	0	---	0.00	29.571 
06:30	45.5	45.5	45.5	67	35.2	0	1	22	0.00	29.570 
06:35	45.8	45.8	45.8	68	35.8	0	1	22	0.00	29.572 
06:40	46.0	46.0	46.0	67	35.7	0	1	22	0.00	29.573 
06:45	46.1	46.1	46.1	67	35.8	0	1	22	0.00	29.575 
06:50	46.2	46.2	46.2	67	35.9	0	1	22	0.00	29.577 
06:55	46.4	46.4	46.4	67	36.0	0	1	22	0.00	29.578 
07:00	46.5	46.5	46.5	66	35.8	0	2	0	0.00	29.580 
07:05	46.5	46.5	46.5	66	35.8	0	1	0	0.00	29.582 
07:10	46.5	46.5	46.5	63	34.6	0	2	0	0.00	29.583 
07:15	46.5	46.5	46.5	63	34.6	1	3	292	0.00	29.587 
07:20	46.4	46.4	46.4	64	34.9	0	2	292	0.00	29.589 
07:25	46.2	46.2	46.2	63	34.3	1	5	292	0.00	29.589 
07:30	46.2	46.2	46.2	63	34.3	1	3	270	0.00	29.592 
07:35	46.1	46.1	46.1	63	34.2	1	3	292	0.00	29.594 
07:40	46.0	46.0	46.0	62	33.7	0	3	292	0.00	29.594 
07:45	46.0	46.0	46.0	63	34.1	0	3	292	0.00	29.595 
07:50	46.1	46.1	46.1	62	33.8	0	3	292	0.00	29.595 
07:55	46.2	46.2	46.2	64	34.7	0	1	292	0.00	29.595 
08:00	46.2	46.2	46.2	62	33.9	1	3	292	0.00	29.596 
08:05	46.4	46.4	46.4	62	34.1	0	1	292	0.00	29.598 
08:10	46.7	46.7	46.7	63	34.8	0	1	292	0.00	29.600 
08:15	46.8	46.8	46.8	62	34.5	0	3	315	0.00	29.600 
08:20	46.8	46.8	46.8	61	34.1	1	2	315	0.00	29.599 
08:25	47.0	47.0	47.0	60	33.8	0	2	315	0.00	29.600 
08:30	47.4	47.4	47.4	62	35.0	0	3	270	0.00	29.602 
08:35	47.7	47.7	47.7	60	34.5	0	3	315	0.00	29.603 
08:40	48.2	48.2	48.2	61	35.4	1	3	270	0.00	29.603 
08:45	48.8	48.8	48.8	59	35.1	1	3	270	0.00	29.606 
08:50	48.9	48.9	48.9	59	35.2	1	5	270	0.00	29.606 
08:55	49.2	49.2	49.2	60	35.9	1	2	0	0.00	29.606 
09:00	49.6	49.6	49.6	57	35.0	1	3	270	0.00	29.606 
09:05	49.8	49.8	49.8	58	35.6	1	3	315	0.00	29.606 
09:10	50.2	50.2	50.2	56	35.1	1	4	292	0.00	29.607 
09:15	50.4	50.4	50.4	54	34.4	2	5	292	0.00	29.609 
09:20	50.4	50.4	50.4	55	34.8	1	3	315	0.00	29.609 
09:25	50.4	50.4	50.4	54	34.4	1	4	338	0.00	29.610 
09:30	50.5	50.5	50.5	54	34.5	1	5	315	0.00	29.609 
09:35	51.1	51.1	51.1	57	36.4	1	3	338	0.00	29.608 
09:40	52.0	52.0	52.0	53	35.4	2	5	338	0.00	29.609 
09:45	52.8	52.8	52.8	50	34.7	2	5	292	0.00	29.608 
09:50	52.8	52.8	52.8	52	35.7	2	6	315	0.00	29.612 
09:55	52.6	52.6	52.6	54	36.4	2	5	292	0.00	29.612 
10:00	52.8	52.8	52.8	52	35.7	3	9	270	0.00	29.612 
10:05	52.8	52.8	52.8	52	35.7	2	5	292	0.00	29.619 
10:10	52.8	52.8	52.8	52	35.7	2	5	315	0.00	29.620 
10:15	52.8	52.8	52.8	53	36.1	3	6	315	0.00	29.621 
10:20	52.9	52.9	52.9	52	35.8	2	7	315	0.00	29.622 
10:25	53.3	53.3	53.3	52	36.1	2	6	270	0.00	29.621 
10:30	53.2	53.2	53.2	51	35.5	2	9	338	0.00	29.623 
10:35	53.5	53.5	53.5	55	37.7	2	5	292	0.00	29.623 
10:40	53.2	53.2	53.2	53	36.5	2	5	315	0.00	29.625 
10:45	53.6	53.6	53.6	51	35.9	3	8	270	0.00	29.625 
10:50	54.2	54.2	54.2	51	36.5	2	5	315	0.00	29.625 
10:55	54.7	54.7	54.7	51	36.9	2	4	315	0.00	29.626 
11:00	54.8	54.8	54.8	47	35.0	2	6	270	0.00	29.625 
11:05	55.0	55.0	55.0	50	36.7	2	5	315	0.00	29.628 
11:10	54.1	54.1	54.1	49	35.4	2	6	315	0.00	29.629 
11:15	53.8	53.8	53.8	49	35.1	2	7	315	0.00	29.630 
11:20	54.4	54.4	54.4	52	37.1	3	9	292	0.00	29.631 
11:25	53.5	53.5	53.5	50	35.3	2	9	315	0.00	29.630 
11:30	54.4	54.4	54.4	50	36.2	2	6	338	0.00	29.630 
11:35	54.5	54.5	54.5	49	35.7	2	7	270	0.00	29.626 
11:40	55.0	55.0	55.0	52	37.7	1	3	338	0.00	29.626 
11:45	55.1	55.1	55.1	50	36.8	3	7	270	0.00	29.629 
11:50	54.8	54.8	54.8	50	36.5	2	5	270	0.00	29.631 
11:55	54.7	54.7	54.7	48	35.4	2	7	292	0.00	29.631 
12:00	54.1	54.1	54.1	49	35.4	2	5	270	0.00	29.629 
12:05	54.7	54.7	54.7	51	36.9	2	6	270	0.00	29.629 
12:10	56.2	56.2	56.2	53	39.3	3	7	270	0.00	29.631 
12:15	55.4	55.4	55.4	48	36.0	3	6	315	0.00	29.630 
12:20	54.8	54.8	54.8	49	36.0	2	9	315	0.00	29.629 
12:25	54.5	54.5	54.5	50	36.2	2	3	292	0.00	29.630 
12:30	54.7	54.7	54.7	49	35.9	2	7	338	0.00	29.633 
12:35	54.1	54.1	54.1	48	34.8	2	5	315	0.00	29.636 
12:40	54.4	54.4	54.4	50	36.2	1	5	315	0.00	29.631 
12:45	54.8	54.8	54.8	50	36.5	3	6	315	0.00	29.636 
12:50	56.2	56.2	56.2	52	38.8	3	6	292	0.00	29.632 
12:55	56.2	56.2	56.2	52	38.8	3	7	270	0.00	29.630 
13:00	56.6	56.6	56.6	46	36.1	3	7	270	0.00	29.626 
13:05	56.2	56.2	56.2	49	37.3	2	5	338	0.00	29.627 
13:10	56.0	56.0	56.0	47	36.1	2	5	315	0.00	29.629 
13:15	56.2	56.2	56.2	48	36.8	3	6	292	0.00	29.630 
13:20	56.6	56.6	56.6	47	36.6	2	5	315	0.00	29.627 
13:25	56.6	56.6	56.6	45	35.5	3	6	315	0.00	29.630 
13:30	56.7	56.7	56.7	49	37.8	2	5	315	0.00	29.626 
13:35	57.3	57.3	57.3	47	37.2	3	7	248	0.00	29.626 
13:40	57.8	57.8	57.8	45	36.6	2	6	315	0.00	29.625 
13:45	58.0	58.0	58.0	48	38.4	2	4	338	0.00	29.624 
13:50	57.8	57.8	57.8	47	37.7	4	12	270	0.00	29.629 
13:55	57.8	57.8	57.8	48	38.2	3	9	315	0.00	29.630 
14:00	58.0	58.0	58.0	46	37.3	2	5	338	0.00	29.626 
14:05	58.1	58.1	58.1	44	36.3	3	6	315	0.00	29.626 
14:10	58.1	58.1	58.1	44	36.3	3	7	315	0.00	29.628 
14:15	58.6	58.6	58.6	44	36.8	3	6	270	0.00	29.626 
14:20	58.6	58.6	58.6	44	36.8	3	9	292	0.00	29.623 
14:25	58.0	58.0	58.0	43	35.6	3	6	315	0.00	29.626 
14:30	58.9	58.9	58.9	47	38.7	3	7	270	0.00	29.623 
14:35	58.9	58.9	58.9	44	37.0	3	6	292	0.00	29.624 
14:40	59.0	59.0	59.0	43	36.5	3	6	315	0.00	29.625 
14:45	59.3	59.3	59.3	46	38.5	2	6	315	0.00	29.630 
14:50	59.5	59.5	59.5	44	37.6	3	5	270	0.00	29.625 
14:55	59.2	59.2	59.2	45	37.9	3	6	270	0.00	29.630 
15:00	59.0	59.0	59.0	44	37.1	3	7	270	0.00	29.626 
15:05	59.0	59.0	59.0	44	37.1	3	6	270	0.00	29.627 
15:10	58.9	58.9	58.9	44	37.0	3	6	315	0.00	29.627 
15:15	58.9	58.9	58.9	46	38.2	3	9	270	0.00	29.625 
15:20	59.0	59.0	59.0	46	38.2	2	6	315	0.00	29.626 
15:25	59.3	59.3	59.3	45	38.0	3	6	270	0.00	29.625 
15:30	59.6	59.6	59.6	45	38.2	3	6	270	0.00	29.625 
15:35	59.6	59.6	59.6	43	37.1	3	7	292	0.00	29.626 
15:40	59.5	59.5	59.5	44	37.6	3	6	270	0.00	29.628 
15:45	59.8	59.8	59.8	44	37.8	2	5	270	0.00	29.628 
15:50	59.8	59.8	59.8	45	38.4	2	4	315	0.00	29.625 
15:55	59.6	59.6	59.6	43	37.1	3	5	270	0.00	29.624 
16:00	59.5	59.5	59.5	47	39.3	3	6	248	0.00	29.625 
16:05	59.8	59.8	59.8	44	37.8	3	6	292	0.00	29.624 
16:10	59.9	59.9	59.9	45	38.5	2	6	315	0.00	29.625 
16:15	59.9	59.9	59.9	44	37.9	2	5	315	0.00	29.626 
16:20	59.9	59.9	59.9	43	37.3	2	6	315	0.00	29.628 
16:25	59.3	59.3	59.3	43	36.8	3	9	292	0.00	29.630 
16:30	59.5	59.5	59.5	44	37.6	3	6	270	0.00	29.628 
16:35	59.3	59.3	59.3	44	37.4	3	6	270	0.00	29.630 
16:40	59.5	59.5	59.5	44	37.6	2	4	315	0.00	29.628 
16:45	59.5	59.5	59.5	44	37.6	3	5	270	0.00	29.631 
16:50	59.6	59.6	59.6	43	37.1	2	5	292	0.00	29.632 
16:55	59.8	59.8	59.8	43	37.3	2	5	248	0.00	29.633 
17:00	59.8	59.8	59.8	44	37.8	2	5	315	0.00	29.635 
17:05	59.6	59.6	59.6	42	36.5	2	4	292	0.00	29.637 
17:10	59.3	59.3	59.3	42	36.2	1	4	315	0.00	29.636 
17:15	59.3	59.3	59.3	44	37.4	2	5	338	0.00	29.636 
17:20	59.5	59.5	59.5	44	37.6	2	5	315	0.00	29.636 
17:25	59.3	59.3	59.3	43	36.8	3	6	270	0.00	29.637 
17:30	59.3	59.3	59.3	43	36.8	2	5	270	0.00	29.637 
17:35	59.2	59.2	59.2	44	37.3	2	7	315	0.00	29.637 
17:40	59.2	59.2	59.2	43	36.7	3	5	270	0.00	29.637 
17:45	59.2	59.2	59.2	44	37.3	2	5	270	0.00	29.635 
17:50	59.2	59.2	59.2	44	37.3	2	5	315	0.00	29.633 
17:55	59.0	59.0	59.0	44	37.1	3	7	270	0.00	29.637 
18:00	59.0	59.0	59.0	43	36.5	2	5	270	0.00	29.640 
18:05	59.0	59.0	59.0	44	37.1	1	3	338	0.00	29.639 
18:10	59.0	59.0	59.0	45	37.7	2	5	270	0.00	29.639 
18:15	58.9	58.9	58.9	45	37.6	2	5	315	0.00	29.639 
18:20	58.7	58.7	58.7	43	36.3	2	4	270	0.00	29.639 
18:25	58.7	58.7	58.7	44	36.8	1	3	338	0.00	29.639 
18:30	58.4	58.4	58.4	45	37.1	2	4	338	0.00	29.642 
18:35	58.1	58.1	58.1	45	36.9	2	5	270	0.00	29.642 
18:40	58.0	58.0	58.0	45	36.8	2	5	270	0.00	29.643 
18:45	58.1	58.1	58.1	46	37.4	1	3	292	0.00	29.644 
18:50	58.1	58.1	58.1	44	36.3	1	4	315	0.00	29.644 
18:55	57.6	57.6	57.6	45	36.4	1	3	315	0.00	29.646 
19:00	57.5	57.5	57.5	45	36.3	1	4	292	0.00	29.650 
19:05	57.5	57.5	57.5	46	36.9	1	3	270	0.00	29.647 
19:10	57.3	57.3	57.3	46	36.7	1	5	248	0.00	29.650 
19:15	57.2	57.2	57.2	46	36.6	1	3	248	0.00	29.648 
19:20	56.9	56.9	56.9	46	36.3	1	4	292	0.00	29.646 
19:25	56.7	56.7	56.7	46	36.2	0	2	292	0.00	29.647 
19:30	56.6	56.6	56.6	46	36.1	0	2	315	0.00	29.648 
19:35	56.3	56.3	56.3	47	36.3	0	2	315	0.00	29.649 
19:40	56.0	56.0	56.0	47	36.1	1	4	248	0.00	29.652 
19:45	56.0	56.0	56.0	48	36.6	0	3	338	0.00	29.651 
19:50	55.7	55.7	55.7	48	36.3	0	1	338	0.00	29.649 
19:55	55.4	55.4	55.4	49	36.6	0	1	292	0.00	29.652 
20:00	55.3	55.3	55.3	50	37.0	0	1	292	0.00	29.654 
20:05	55.0	55.0	55.0	50	36.7	0	1	292	0.00	29.653 
20:10	54.7	54.7	54.7	51	36.9	0	1	292	0.00	29.649 
20:15	54.2	54.2	54.2	52	37.0	0	0	---	0.00	29.649 
20:20	53.8	53.8	53.8	54	37.5	0	0	---	0.00	29.650 
20:25	53.3	53.3	53.3	54	37.1	0	0	---	0.00	29.651 
20:30	53.1	53.1	53.1	55	37.4	0	0	---	0.00	29.654 
20:35	52.8	52.8	52.8	55	37.1	0	0	---	0.00	29.655 
20:40	52.5	52.5	52.5	56	37.3	0	0	---	0.00	29.656 
20:45	52.2	52.2	52.2	57	37.4	0	0	---	0.00	29.657 
20:50	51.9	51.9	51.9	57	37.1	0	0	---	0.00	29.658 
20:55	51.4	51.4	51.4	59	37.6	0	0	---	0.00	29.659 
21:00	50.8	50.8	50.8	60	37.4	0	0	---	0.00	29.662 
21:05	50.4	50.4	50.4	60	37.0	0	0	---	0.00	29.661 
21:10	49.9	49.9	49.9	62	37.4	0	0	---	0.00	29.665 
21:15	49.5	49.5	49.5	62	37.0	0	0	---	0.00	29.666 
21:20	49.2	49.2	49.2	63	37.1	0	0	---	0.00	29.665 
21:25	48.9	48.9	48.9	65	37.7	0	0	---	0.00	29.668 
21:30	48.5	48.5	48.5	65	37.3	0	0	---	0.00	29.671 
21:35	48.2	48.2	48.2	66	37.4	0	0	---	0.00	29.672 
21:40	48.0	48.0	48.0	66	37.2	0	0	---	0.00	29.672 
21:45	47.9	47.9	47.9	67	37.5	0	0	---	0.00	29.672 
21:50	47.9	47.9	47.9	68	37.9	0	0	---	0.00	29.672 
21:55	47.7	47.7	47.7	67	37.3	0	0	---	0.00	29.672 
22:00	47.7	47.7	47.7	68	37.7	0	0	---	0.00	29.671 
22:05	47.7	47.7	47.7	68	37.7	0	1	292	0.00	29.669 
22:10	47.7	47.7	47.7	68	37.7	0	0	---	0.00	29.669 
22:15	47.7	47.7	47.7	68	37.7	0	1	292	0.00	29.669 
22:20	48.0	48.0	48.0	67	37.6	0	1	292	0.00	29.670 
22:25	48.2	48.2	48.2	66	37.4	0	1	292	0.00	29.671 
22:30	48.3	48.3	48.3	66	37.5	0	0	---	0.00	29.670 
22:35	48.2	48.2	48.2	66	37.4	0	0	---	0.00	29.668 
22:40	48.2	48.2	48.2	66	37.4	0	0	---	0.00	29.667 
22:45	48.0	48.0	48.0	66	37.2	0	0	---	0.00	29.662 
22:50	48.0	48.0	48.0	66	37.2	0	0	---	0.00	29.661 
22:55	47.9	47.9	47.9	67	37.5	0	0	---	0.00	29.662 
23:00	47.9	47.9	47.9	67	37.5	0	0	---	0.00	29.663 
23:05	47.9	47.9	47.9	66	37.1	0	0	---	0.00	29.665 
23:10	48.0	48.0	48.0	67	37.6	0	0	---	0.00	29.666 
23:15	48.0	48.0	48.0	67	37.6	0	0	---	0.00	29.666 
23:20	48.0	48.0	48.0	67	37.6	0	0	---	0.00	29.667 
23:25	47.9	47.9	47.9	67	37.5	0	0	---	0.00	29.666 
23:30	47.9	47.9	47.9	67	37.5	0	0	---	0.00	29.666 
23:35	47.9	47.9	47.9	67	37.5	0	0	---	0.00	29.666 
23:40	47.9	47.9	47.9	67	37.5	0	0	---	0.00	29.665 
23:45	47.7	47.7	47.7	67	37.3	0	0	---	0.00	29.664 
23:50	47.9	47.9	47.9	67	37.5	0	1	292	0.00	29.664 
23:55	48.2	48.2	48.2	67	37.8	0	1	292	0.00	29.663 

CoCoRaHS
IN-AL-39
A2 Web Hosting
Creative Commons License
GoDaddy
Look for:

loaded 2017-12-12 16:52:46 • last modified 2010-11-18 10:43:29
Privacy PolicyDisclaimer
• wx.awcolley.com is powered by PmWiki v.2002016 •
• all content (unless otherwise noted) © 2017 A W Colley